Airfield :
LOGIN :

Register | Disclaimer

   EN    FR    IT 

 










Legend :    VFR   Marginal VFR   IFR   Intensive IFR   Very Intensive IFR
Visi :
Ceiling :
>= 8 km
>= 3000ft
5 to 8 km
1000 to 3000 ft
1500m to 5 km
500 to 1000 ft
800 to 1500m
200 to 500 ft
< 800m
< 200 ft
Symbols :   Thunderstorms  Fog  Heavy snow  Heavy precipitations  Wind > 20 kt
SIGMETs :     Misc.  Thunderstorms  Icing  Turbulence  Mountain Waves  Volcanic Ashes







- Airport Elevation : 82 ft
- IATA code : AAR


EKAH - Aarhus Tirstrup

CURRENT METAR :
  • 150520Z AUTO 12003KT 9999NDV -SHRA OVC021/// 02/01 Q1031

EXPIRED METARs :
  • 150450Z AUTO 16003KT 9999NDV DZ OVC024/// 02/01 Q1031
  • 150420Z AUTO 15002KT 9999NDV FEW015/// BKN041/// 03/01 Q1031
  • 150350Z AUTO 14002KT 9999NDV FEW023/// BKN051/// 03/01 Q1031
  • 150320Z AUTO 13002KT 9999NDV SCT014/// BKN041/// 03/01 Q1031
  • 150250Z AUTO 11004KT 080V140 9999NDV FEW019/// FEW024/// BKN042/// 03/01 Q1031

TAF TAF EKAH
Valid from the 15 at 06:00 until the 16 at 06:00 UTC


150506Z 1506/1606 15005KT 9999 BKN040
TEMPO 1506/1524 4000 -SHSNRA BKN008 BKN012TCU
No reported NOTAMs for that airfield.



MET'MAP, your aeronautical weather chart ! - Copyright ORBIFLY December 2007 - Disclaimer

ORBIFLY MET'MAP TEAM :

Programming & Development : Alexandra Zaïnal
Concept & Development : Baudouin d'Aumeries
Co-Development & Prog : Marc-Olivier Méhu
Technical & hardware support : Manuel Goepfert

Contact : metmap@orbifly.com




SOURCES & CREDITS :

   NOAA